createdAt,value
2018-09-06T00:01:48.105Z,15.28
2018-09-06T00:04:16.441Z,15.32
2018-09-06T00:06:44.808Z,15.26
2018-09-06T00:09:13.162Z,15.28
2018-09-06T00:11:41.593Z,15.13
2018-09-06T00:14:09.926Z,15.19
2018-09-06T00:16:38.311Z,15.30
2018-09-06T00:19:06.683Z,15.27
2018-09-06T00:21:35.371Z,15.18
2018-09-06T00:24:03.732Z,15.18
2018-09-06T00:26:32.580Z,15.26
2018-09-06T00:29:02.613Z,15.14
2018-09-06T00:31:31.942Z,15.07
2018-09-06T00:34:01.318Z,15.22
2018-09-06T00:36:30.278Z,15.08
2018-09-06T00:38:59.078Z,15.12
2018-09-06T00:41:27.405Z,15.11
2018-09-06T00:43:55.753Z,15.08
2018-09-06T00:46:24.118Z,14.89
2018-09-06T00:48:53.405Z,14.76
2018-09-06T00:51:24.190Z,14.81
2018-09-06T00:53:53.423Z,14.78
2018-09-06T00:56:22.979Z,14.67
2018-09-06T00:58:51.636Z,14.68
2018-09-06T01:01:20.013Z,14.74
2018-09-06T01:03:48.416Z,14.60
2018-09-06T01:06:16.749Z,14.68
2018-09-06T01:08:45.200Z,14.56
2018-09-06T01:11:13.541Z,14.73
2018-09-06T01:13:41.979Z,14.56
2018-09-06T01:16:10.314Z,14.49
2018-09-06T01:18:38.745Z,14.44
2018-09-06T01:21:07.357Z,14.45
2018-09-06T01:23:40.573Z,14.46
2018-09-06T01:26:08.912Z,14.42
2018-09-06T01:28:37.274Z,14.34
2018-09-06T01:31:06.017Z,14.36
2018-09-06T01:33:34.365Z,14.37
2018-09-06T01:36:08.114Z,14.40
2018-09-06T01:38:37.412Z,14.54
2018-09-06T01:41:05.777Z,14.37
2018-09-06T01:43:34.113Z,14.34
2018-09-06T01:46:02.504Z,14.40
2018-09-06T01:48:31.861Z,14.26
2018-09-06T01:51:00.192Z,14.27
2018-09-06T01:53:30.215Z,14.41
2018-09-06T01:55:59.188Z,14.48
2018-09-06T01:58:28.103Z,14.36
2018-09-06T02:00:57.797Z,14.37
2018-09-06T02:03:27.333Z,14.33
2018-09-06T02:05:56.121Z,14.39
2018-09-06T02:08:25.373Z,14.30
2018-09-06T02:10:54.721Z,14.37
2018-09-06T02:13:24.120Z,14.48
2018-09-06T02:15:54.628Z,14.56
2018-09-06T02:18:23.834Z,14.53
2018-09-06T02:20:53.185Z,14.46
2018-09-06T02:23:23.374Z,14.42
2018-09-06T02:25:55.047Z,14.38
2018-09-06T02:28:24.353Z,14.33
2018-09-06T02:30:54.669Z,14.45
2018-09-06T02:33:24.122Z,14.39
2018-09-06T02:35:54.505Z,14.47
2018-09-06T02:38:24.265Z,14.32
2018-09-06T02:40:53.489Z,14.39
2018-09-06T02:43:24.290Z,14.25
2018-09-06T02:45:55.578Z,14.37
2018-09-06T02:48:30.195Z,14.26
2018-09-06T02:51:04.812Z,14.21
2018-09-06T02:53:34.249Z,14.20
2018-09-06T02:56:03.538Z,14.33
2018-09-06T02:58:31.870Z,14.13
2018-09-06T03:01:00.245Z,14.24
2018-09-06T03:03:30.329Z,14.13
2018-09-06T03:05:59.932Z,14.07
2018-09-06T03:08:29.363Z,14.12
2018-09-06T03:11:02.845Z,14.18
2018-09-06T03:13:31.811Z,14.17
2018-09-06T03:16:01.138Z,14.08
2018-09-06T03:18:30.209Z,14.11
2018-09-06T03:20:59.115Z,14.01
2018-09-06T03:23:28.299Z,14.12
2018-09-06T03:25:57.566Z,14.25
2018-09-06T03:28:26.805Z,14.27
2018-09-06T03:30:56.157Z,14.25
2018-09-06T03:33:25.515Z,14.19
2018-09-06T03:35:55.738Z,14.26
2018-09-06T03:38:24.242Z,14.28
2018-09-06T03:40:53.126Z,14.17
2018-09-06T03:43:23.863Z,14.22
2018-09-06T03:45:54.176Z,14.22
2018-09-06T03:48:23.473Z,14.26
2018-09-06T03:50:54.091Z,14.29
2018-09-06T03:53:23.305Z,14.26
2018-09-06T03:55:53.271Z,14.25
2018-09-06T03:58:22.402Z,14.32
2018-09-06T04:00:51.538Z,14.26
2018-09-06T04:03:19.872Z,14.19
2018-09-06T04:05:48.282Z,14.18
2018-09-06T04:08:16.710Z,14.12
2018-09-06T04:10:45.161Z,14.18
2018-09-06T04:13:13.489Z,14.16
2018-09-06T04:15:41.834Z,14.08
2018-09-06T04:18:10.188Z,13.99
2018-09-06T04:20:38.569Z,14.04
2018-09-06T04:23:06.906Z,14.07
2018-09-06T04:25:35.246Z,13.93
2018-09-06T04:28:03.650Z,13.88
2018-09-06T04:30:32.029Z,13.88
2018-09-06T04:33:01.050Z,13.79
2018-09-06T04:35:30.843Z,13.79
2018-09-06T04:38:00.333Z,13.82
2018-09-06T04:40:29.266Z,13.68
2018-09-06T04:42:57.717Z,13.71
2018-09-06T04:45:26.049Z,13.72
2018-09-06T04:47:54.390Z,13.59
2018-09-06T04:50:23.706Z,13.66
2018-09-06T04:52:53.034Z,13.72
2018-09-06T04:55:22.277Z,13.62
2018-09-06T04:57:52.174Z,13.63
2018-09-06T05:00:22.586Z,13.55
2018-09-06T05:02:52.518Z,13.55
2018-09-06T05:05:22.651Z,13.57
2018-09-06T05:07:52.598Z,13.69
2018-09-06T05:10:20.932Z,13.66
2018-09-06T05:12:51.441Z,13.66
2018-09-06T05:15:19.897Z,13.75
2018-09-06T05:17:49.164Z,13.74
2018-09-06T05:20:17.567Z,13.79
2018-09-06T05:22:45.913Z,13.68
2018-09-06T05:25:15.249Z,13.82
2018-09-06T05:27:44.733Z,13.92
2018-09-06T05:30:13.090Z,13.88
2018-09-06T05:32:41.407Z,13.95
2018-09-06T05:35:09.877Z,13.99
2018-09-06T05:37:38.308Z,14.05
2018-09-06T05:40:06.708Z,14.04
2018-09-06T05:42:35.057Z,14.14
2018-09-06T05:45:03.406Z,14.21
2018-09-06T05:47:33.474Z,14.12
2018-09-06T05:50:04.141Z,14.21
2018-09-06T05:52:33.551Z,14.23
2018-09-06T05:55:02.917Z,14.26
2018-09-06T05:57:32.044Z,14.34
2018-09-06T06:00:01.124Z,14.40
2018-09-06T06:02:31.533Z,14.47
2018-09-06T06:05:01.793Z,14.46
2018-09-06T06:07:41.576Z,14.57
2018-09-06T06:10:10.939Z,14.57
2018-09-06T06:12:39.381Z,14.50
2018-09-06T06:15:07.800Z,14.75
2018-09-06T06:17:36.147Z,14.79
2018-09-06T06:20:05.463Z,14.91
2018-09-06T06:22:34.730Z,15.02
2018-09-06T06:25:04.090Z,15.06
2018-09-06T06:27:32.493Z,15.25
2018-09-06T06:30:03.153Z,15.23
2018-09-06T06:32:32.906Z,15.37
2018-09-06T06:35:02.145Z,15.47
2018-09-06T06:37:31.205Z,15.55
2018-09-06T06:40:00.431Z,15.68
2018-09-06T06:42:28.830Z,15.85
2018-09-06T06:44:57.204Z,16.03
2018-09-06T06:47:26.080Z,16.07
2018-09-06T06:49:55.469Z,16.21
2018-09-06T06:52:24.749Z,16.32
2018-09-06T06:54:54.002Z,16.43
2018-09-06T06:57:22.572Z,16.50
2018-09-06T06:59:52.238Z,16.55
2018-09-06T07:02:21.639Z,16.57
2018-09-06T07:04:51.533Z,16.68
2018-09-06T07:07:19.865Z,16.88
2018-09-06T07:09:49.107Z,16.97
2018-09-06T07:12:17.516Z,17.11
2018-09-06T07:14:46.766Z,17.17
2018-09-06T07:17:15.242Z,17.18
2018-09-06T07:19:43.728Z,17.22
2018-09-06T07:22:13.053Z,17.38
2018-09-06T07:24:41.389Z,17.61
2018-09-06T07:27:09.733Z,17.73
2018-09-06T07:29:38.960Z,17.77
2018-09-06T07:32:07.948Z,17.90
2018-09-06T07:34:36.351Z,18.00
2018-09-06T07:37:05.492Z,18.12
2018-09-06T07:39:33.826Z,18.19
2018-09-06T07:42:02.230Z,18.29
2018-09-06T07:44:31.745Z,18.53
2018-09-06T07:47:00.761Z,18.55
2018-09-06T07:49:29.708Z,18.70
2018-09-06T07:51:58.061Z,18.88
2018-09-06T07:54:27.406Z,18.92
2018-09-06T07:56:55.748Z,18.96
2018-09-06T07:59:25.614Z,19.05
2018-09-06T08:01:54.794Z,19.26
2018-09-06T08:04:23.177Z,19.40
2018-09-06T08:06:53.063Z,19.57
2018-09-06T08:09:23.022Z,19.59
2018-09-06T08:11:52.065Z,19.60
2018-09-06T08:14:21.846Z,19.86
2018-09-06T08:16:51.180Z,19.87
2018-09-06T08:19:20.372Z,19.91
2018-09-06T08:21:48.705Z,19.98
2018-09-06T08:24:17.887Z,20.10
2018-09-06T08:26:48.085Z,20.30
2018-09-06T08:29:17.544Z,20.30
2018-09-06T08:31:46.397Z,20.42
2018-09-06T08:34:15.434Z,20.68
2018-09-06T08:36:43.871Z,20.70
2018-09-06T08:39:13.021Z,20.70
2018-09-06T08:41:41.573Z,20.85
2018-09-06T08:44:10.800Z,20.90
2018-09-06T08:46:39.173Z,20.96
2018-09-06T08:49:07.630Z,21.06
2018-09-06T08:51:37.051Z,21.26
2018-09-06T08:54:05.369Z,21.56
2018-09-06T08:56:37.785Z,21.55
2018-09-06T08:59:07.161Z,21.57
2018-09-06T09:01:39.857Z,21.80
2018-09-06T09:04:08.545Z,22.01
2018-09-06T09:06:38.489Z,22.04
2018-09-06T09:09:09.009Z,22.02
2018-09-06T09:11:37.448Z,22.35
2018-09-06T09:14:05.825Z,22.40
2018-09-06T09:16:35.240Z,22.44
2018-09-06T09:19:03.598Z,22.50
2018-09-06T09:21:32.081Z,22.66
2018-09-06T09:24:01.396Z,22.90
2018-09-06T09:26:29.716Z,22.81
2018-09-06T09:28:59.030Z,22.98
2018-09-06T09:31:27.394Z,23.12
2018-09-06T09:33:55.834Z,23.08
2018-09-06T09:36:24.282Z,23.11
2018-09-06T09:38:53.985Z,23.18
2018-09-06T09:41:23.611Z,23.05
2018-09-06T09:43:53.109Z,23.07
2018-09-06T09:48:51.316Z,22.98
2018-09-06T09:51:20.255Z,22.80
2018-09-06T09:53:48.685Z,23.00
2018-09-06T09:56:17.045Z,23.25
2018-09-06T09:58:46.272Z,23.46
2018-09-06T10:01:15.269Z,23.43
2018-09-06T10:06:23.246Z,23.29
2018-09-06T10:08:58.198Z,23.39
2018-09-06T10:11:26.527Z,23.49
2018-09-06T10:13:54.861Z,23.55
2018-09-06T10:16:23.253Z,23.65
2018-09-06T10:18:52.223Z,23.24
2018-09-06T10:21:21.372Z,23.05
2018-09-06T10:23:51.395Z,23.03
2018-09-06T10:26:19.834Z,23.19
2018-09-06T10:28:48.202Z,23.62
2018-09-06T10:31:18.572Z,23.78
2018-09-06T10:33:47.516Z,23.57
2018-09-06T10:36:16.449Z,23.36
2018-09-06T10:38:45.359Z,23.16
2018-09-06T10:41:13.705Z,23.47
2018-09-06T10:43:42.073Z,23.33
2018-09-06T10:46:10.473Z,23.40
2018-09-06T10:48:39.169Z,23.38
2018-09-06T10:51:07.492Z,23.42
2018-09-06T10:53:35.858Z,23.59
2018-09-06T10:56:04.181Z,24.14
2018-09-06T10:58:33.416Z,24.42
2018-09-06T11:01:08.226Z,24.23
2018-09-06T11:03:36.554Z,24.11
2018-09-06T11:06:04.933Z,24.24
2018-09-06T11:08:33.417Z,24.43
2018-09-06T11:11:02.811Z,24.33
2018-09-06T11:13:31.190Z,24.15
2018-09-06T11:15:59.698Z,23.85
2018-09-06T11:18:28.205Z,23.72
2018-09-06T11:20:57.649Z,23.68
2018-09-06T11:23:25.998Z,23.69
2018-09-06T11:25:56.189Z,23.82
2018-09-06T11:28:24.781Z,23.95
2018-09-06T11:30:53.113Z,24.21
2018-09-06T11:33:22.705Z,24.42
2018-09-06T11:35:51.333Z,24.42
2018-09-06T11:38:20.480Z,24.54
2018-09-06T11:40:50.631Z,24.72
2018-09-06T11:43:19.049Z,24.78
2018-09-06T11:45:48.469Z,25.10
2018-09-06T11:48:17.517Z,25.29
2018-09-06T11:50:47.940Z,25.47
2018-09-06T11:53:17.133Z,25.58
2018-09-06T11:55:47.601Z,25.39
2018-09-06T11:58:16.462Z,25.14
2018-09-06T12:00:46.342Z,25.17
2018-09-06T12:03:16.523Z,25.24
2018-09-06T12:05:45.384Z,25.43
2018-09-06T12:08:13.764Z,25.45
2018-09-06T12:10:42.099Z,25.47
2018-09-06T12:13:10.417Z,25.68
2018-09-06T12:15:39.644Z,25.54
2018-09-06T12:18:08.906Z,25.14
2018-09-06T12:20:37.313Z,25.15
2018-09-06T12:23:05.769Z,25.28
2018-09-06T12:25:34.180Z,25.54
2018-09-06T12:28:02.605Z,25.65
2018-09-06T12:30:30.956Z,25.30
2018-09-06T12:32:59.942Z,25.30
2018-09-06T12:35:28.422Z,25.18
2018-09-06T12:37:56.771Z,25.46
2018-09-06T12:41:28.372Z,25.78
2018-09-06T12:43:57.810Z,25.80
2018-09-06T12:46:26.206Z,25.51
2018-09-06T12:48:54.655Z,25.48
2018-09-06T12:51:22.989Z,25.45
2018-09-06T12:53:52.243Z,25.22
2018-09-06T12:56:22.289Z,25.11
2018-09-06T12:58:51.682Z,25.30
2018-09-06T13:01:22.259Z,25.48
2018-09-06T13:03:52.202Z,25.59
2018-09-06T13:06:22.613Z,25.74
2018-09-06T13:08:50.953Z,25.66
2018-09-06T13:11:21.293Z,25.54
2018-09-06T13:13:51.365Z,25.04
2018-09-06T13:16:21.429Z,24.69
2018-09-06T13:18:49.903Z,24.65
2018-09-06T13:21:18.578Z,24.60
2018-09-06T13:23:47.862Z,24.47
2018-09-06T13:26:17.517Z,24.37
2018-09-06T13:28:46.548Z,24.40
2018-09-06T13:31:14.961Z,24.33
2018-09-06T13:33:43.288Z,24.41
2018-09-06T13:36:11.628Z,24.51
2018-09-06T13:38:39.948Z,24.91
2018-09-06T13:41:08.284Z,25.09
2018-09-06T13:43:36.662Z,25.06
2018-09-06T13:46:05.245Z,25.05
2018-09-06T13:48:33.614Z,24.85
2018-09-06T13:51:01.995Z,24.58
2018-09-06T13:53:30.325Z,24.55
2018-09-06T13:55:58.912Z,24.50
2018-09-06T13:58:27.374Z,24.44
2018-09-06T14:00:55.705Z,24.49
2018-09-06T14:03:24.044Z,24.64
2018-09-06T14:05:55.281Z,24.92
2018-09-06T14:08:24.136Z,25.05
2018-09-06T14:10:53.598Z,25.12
2018-09-06T14:13:22.489Z,25.16
2018-09-06T14:15:52.319Z,25.06
2018-09-06T14:18:21.353Z,25.14
2018-09-06T14:20:50.325Z,25.12
2018-09-06T14:23:19.488Z,24.97
2018-09-06T14:25:48.813Z,24.81
2018-09-06T14:28:17.783Z,24.64
2018-09-06T14:30:46.602Z,24.68
2018-09-06T14:33:16.468Z,24.55
2018-09-06T14:35:45.523Z,24.66
2018-09-06T14:38:13.953Z,24.77
2018-09-06T14:40:42.241Z,24.76
2018-09-06T14:43:10.577Z,24.77
2018-09-06T14:45:38.985Z,24.94
2018-09-06T14:48:07.317Z,24.94
2018-09-06T14:50:35.649Z,25.01
2018-09-06T14:53:03.991Z,24.98
2018-09-06T14:55:32.354Z,24.83
2018-09-06T14:58:00.768Z,24.80
2018-09-06T15:00:29.101Z,24.70
2018-09-06T15:02:57.436Z,24.58
2018-09-06T15:05:25.752Z,24.53
2018-09-06T15:07:54.113Z,24.40
2018-09-06T15:10:23.557Z,24.25
2018-09-06T15:12:52.439Z,24.20
2018-09-06T15:15:21.486Z,23.95
2018-09-06T15:17:50.902Z,23.71
2018-09-06T15:20:19.262Z,23.71
2018-09-06T15:22:48.262Z,23.61
2018-09-06T15:25:17.158Z,23.55
2018-09-06T15:27:45.755Z,23.78
2018-09-06T15:30:14.089Z,23.74
2018-09-06T15:32:42.504Z,23.78
2018-09-06T15:35:10.823Z,23.73
2018-09-06T15:37:39.161Z,23.57
2018-09-06T15:40:07.590Z,23.57
2018-09-06T15:42:35.954Z,23.65
2018-09-06T15:45:05.612Z,23.74
2018-09-06T15:47:33.936Z,23.71
2018-09-06T15:50:02.777Z,23.71
2018-09-06T15:52:31.216Z,23.69
2018-09-06T15:54:59.637Z,23.65
2018-09-06T15:57:27.982Z,23.64
2018-09-06T15:59:56.318Z,23.53
2018-09-06T16:02:24.957Z,23.42
2018-09-06T16:04:53.294Z,23.34
2018-09-06T16:07:22.312Z,23.33
2018-09-06T16:09:51.235Z,23.15
2018-09-06T16:12:20.295Z,23.13
2018-09-06T16:14:49.108Z,23.13
2018-09-06T16:17:18.097Z,23.02
2018-09-06T16:19:47.742Z,22.89
2018-09-06T16:22:16.629Z,22.83
2018-09-06T16:24:45.511Z,22.77
2018-09-06T16:27:13.844Z,22.68
2018-09-06T16:29:42.186Z,22.57
2018-09-06T16:32:10.521Z,22.38
2018-09-06T16:34:38.905Z,22.13
2018-09-06T16:37:07.333Z,21.92
2018-09-06T16:39:35.910Z,21.76
2018-09-06T16:42:05.185Z,21.57
2018-09-06T16:44:33.548Z,21.25
2018-09-06T16:47:01.874Z,21.35
2018-09-06T16:49:31.216Z,21.25
2018-09-06T16:51:59.630Z,21.07
2018-09-06T16:54:28.057Z,21.23
2018-09-06T16:56:56.400Z,21.19
2018-09-06T16:59:24.941Z,21.02
2018-09-06T17:01:54.289Z,20.91
2018-09-06T17:04:23.853Z,21.06
2018-09-06T17:06:53.273Z,20.94
2018-09-06T17:09:22.904Z,20.91
2018-09-06T17:11:52.828Z,20.76
2018-09-06T17:14:22.089Z,20.82
2018-09-06T17:16:52.320Z,20.70
2018-09-06T17:19:21.397Z,20.58
2018-09-06T17:21:50.486Z,20.56
2018-09-06T17:24:20.354Z,20.47
2018-09-06T17:26:48.828Z,20.53
2018-09-06T17:29:18.348Z,20.56
2018-09-06T17:31:47.664Z,20.53
2018-09-06T17:34:16.719Z,20.27
2018-09-06T17:36:45.261Z,20.25
2018-09-06T17:39:14.054Z,20.07
2018-09-06T17:41:42.406Z,20.11
2018-09-06T17:44:10.797Z,20.06
2018-09-06T17:46:39.139Z,20.12
2018-09-06T17:49:07.639Z,20.08
2018-09-06T17:51:35.982Z,19.92
2018-09-06T17:54:04.311Z,19.98
2018-09-06T17:56:32.646Z,19.88
2018-09-06T17:59:01.312Z,19.89
2018-09-06T18:01:33.852Z,19.83
2018-09-06T18:04:02.705Z,19.71
2018-09-06T18:06:31.051Z,19.75
2018-09-06T18:08:59.401Z,19.70
2018-09-06T18:11:28.309Z,19.69
2018-09-06T18:13:57.905Z,19.48
2018-09-06T18:16:26.496Z,19.51
2018-09-06T18:18:55.185Z,19.37
2018-09-06T18:21:24.279Z,19.35
2018-09-06T18:23:54.892Z,19.24
2018-09-06T18:26:23.701Z,19.34
2018-09-06T18:28:52.425Z,19.27
2018-09-06T18:31:22.934Z,19.29
2018-09-06T18:33:52.269Z,19.16
2018-09-06T18:36:20.834Z,19.05
2018-09-06T18:38:51.581Z,19.00
2018-09-06T18:41:21.337Z,18.85
2018-09-06T18:43:51.454Z,18.94
2018-09-06T18:46:20.576Z,18.92
2018-09-06T18:48:48.909Z,18.73
2018-09-06T18:51:20.479Z,18.71
2018-09-06T18:53:49.206Z,18.63
2018-09-06T18:56:19.005Z,18.41
2018-09-06T18:58:48.692Z,18.37
2018-09-06T19:01:17.932Z,18.31
2018-09-06T19:03:47.497Z,18.27
2018-09-06T19:06:16.664Z,18.22
2018-09-06T19:08:45.746Z,18.07
2018-09-06T19:11:14.342Z,18.01
2018-09-06T19:13:42.853Z,17.89
2018-09-06T19:16:11.252Z,17.83
2018-09-06T19:18:40.704Z,17.81
2018-09-06T19:21:09.073Z,17.77
2018-09-06T19:23:37.429Z,17.90
2018-09-06T19:26:05.936Z,17.73
2018-09-06T19:28:34.481Z,17.69
2018-09-06T19:31:02.832Z,17.79
2018-09-06T19:33:32.122Z,17.82
2018-09-06T19:36:00.479Z,17.88
2018-09-06T19:38:31.874Z,17.76
2018-09-06T19:41:00.334Z,17.69
2018-09-06T19:43:28.749Z,17.63
2018-09-06T19:45:57.124Z,17.61
2018-09-06T19:48:26.633Z,17.60
2018-09-06T19:50:55.030Z,17.54
2018-09-06T19:53:23.412Z,17.54
2018-09-06T19:55:53.377Z,17.50
2018-09-06T19:58:23.128Z,17.54
2018-09-06T20:00:51.906Z,17.48
2018-09-06T20:03:20.889Z,17.45
2018-09-06T20:05:51.516Z,17.53
2018-09-06T20:08:21.420Z,17.38
2018-09-06T20:10:51.373Z,17.23
2018-09-06T20:13:21.476Z,17.24
2018-09-06T20:15:49.814Z,17.12
2018-09-06T20:18:18.527Z,17.15
2018-09-06T20:20:48.899Z,16.97
2018-09-06T20:23:20.689Z,17.08
2018-09-06T20:25:49.926Z,17.01
2018-09-06T20:28:18.922Z,17.03
2018-09-06T20:30:51.079Z,17.07
2018-09-06T20:33:21.741Z,16.96
2018-09-06T20:35:51.191Z,16.87
2018-09-06T20:38:21.830Z,16.76
2018-09-06T20:40:52.336Z,16.78
2018-09-06T20:43:22.344Z,16.67
2018-09-06T20:45:53.372Z,16.65
2018-09-06T20:48:22.818Z,16.63
2018-09-06T20:50:52.176Z,16.48
2018-09-06T20:53:22.644Z,16.37
2018-09-06T20:55:53.164Z,16.30
2018-09-06T20:58:23.323Z,16.24
2018-09-06T21:00:53.714Z,16.41
2018-09-06T21:03:22.777Z,16.20
2018-09-06T21:05:52.749Z,16.26
2018-09-06T21:08:22.462Z,16.16
2018-09-06T21:10:51.457Z,16.16
2018-09-06T21:13:19.833Z,16.15
2018-09-06T21:15:49.356Z,16.16
2018-09-06T21:18:18.534Z,16.16
2018-09-06T21:20:48.834Z,16.05
2018-09-06T21:23:18.552Z,15.94
2018-09-06T21:25:47.805Z,15.90
2018-09-06T21:28:16.857Z,15.90
2018-09-06T21:30:45.272Z,15.85
2018-09-06T21:33:14.669Z,15.81
2018-09-06T21:35:43.890Z,15.74
2018-09-06T21:38:12.346Z,15.70
2018-09-06T21:40:40.729Z,15.61
2018-09-06T21:43:09.985Z,15.61
2018-09-06T21:45:38.361Z,15.53
2018-09-06T21:48:06.732Z,15.49
2018-09-06T21:50:35.948Z,15.38
2018-09-06T21:53:04.460Z,15.45
2018-09-06T21:55:32.834Z,15.43
2018-09-06T21:58:01.223Z,15.33
2018-09-06T22:00:29.581Z,15.22
2018-09-06T22:03:03.205Z,15.22
2018-09-06T22:05:31.557Z,15.25
2018-09-06T22:07:59.925Z,15.29
2018-09-06T22:10:28.281Z,15.31
2018-09-06T22:12:57.608Z,15.19
2018-09-06T22:15:25.984Z,15.23
2018-09-06T22:17:54.320Z,15.07
2018-09-06T22:20:23.956Z,15.01
2018-09-06T22:22:53.991Z,14.98
2018-09-06T22:25:23.692Z,15.01
2018-09-06T22:27:53.048Z,14.91
2018-09-06T22:30:21.901Z,14.87
2018-09-06T22:32:51.026Z,15.00
2018-09-06T22:35:19.457Z,14.89
2018-09-06T22:37:48.756Z,14.76
2018-09-06T22:40:18.117Z,14.69
2018-09-06T22:42:47.592Z,14.64
2018-09-06T22:45:16.865Z,14.65
2018-09-06T22:47:47.397Z,14.65
2018-09-06T22:50:17.097Z,14.57
2018-09-06T22:52:47.011Z,14.64
2018-09-06T22:55:15.402Z,14.64
2018-09-06T22:57:44.673Z,14.49
2018-09-06T23:00:13.007Z,14.48
2018-09-06T23:03:49.313Z,14.40
2018-09-06T23:06:24.523Z,14.35
2018-09-06T23:08:54.208Z,14.31
2018-09-06T23:11:23.200Z,14.22
2018-09-06T23:13:53.054Z,14.27
2018-09-06T23:16:21.833Z,14.20
2018-09-06T23:18:51.077Z,14.12
2018-09-06T23:21:21.426Z,14.09
2018-09-06T23:23:51.537Z,14.03
2018-09-06T23:26:21.488Z,13.96
2018-09-06T23:28:50.270Z,13.92
2018-09-06T23:31:18.601Z,13.91
2018-09-06T23:33:46.966Z,13.88
2018-09-06T23:36:15.883Z,13.85
2018-09-06T23:38:44.221Z,13.82
2018-09-06T23:41:12.605Z,13.91
2018-09-06T23:43:41.003Z,13.96
2018-09-06T23:46:10.265Z,13.93
2018-09-06T23:48:38.622Z,13.89
2018-09-06T23:51:07.976Z,13.93
2018-09-06T23:53:36.369Z,14.12
2018-09-06T23:56:04.730Z,13.97
2018-09-06T23:58:33.125Z,13.95
